Time;durP1;ratioP1;P1;durP2;ratioP2;P2;SDS_P1;SDS_P2;PMS_P1;PMS_P2;Temp;Humidity;BMP_temperature;BMP_pressure;BME280_temperature;BME280_humidity;BME280_pressure;Samples;Min_cycle;Max_cycle;Signal;HPM_P1;HPM_P2
2021/12/13 00:01:07;;;;;;;191.38;21.73;;;;;;;;;;5031826;28;20064;-87
2021/12/13 00:03:45;;;;;;;272.75;26.65;;;;;;;;;;5030852;28;20017;-87
2021/12/13 00:06:12;;;;;;;139.40;20.95;;;;;;;;;;5035494;28;20141;-86
2021/12/13 00:08:39;;;;;;;230.98;26.27;;;;;;;;;;5030460;28;20412;-87
2021/12/13 00:11:12;;;;;;;136.85;20.50;;;;;;;;;;5030832;28;20029;-87
2021/12/13 00:13:46;;;;;;;88.15;17.73;;;;;;;;;;5012762;28;20401;-87
2021/12/13 00:16:12;;;;;;;157.52;21.42;;;;;;;;;;5030674;28;20029;-87
2021/12/13 00:18:40;;;;;;;57.42;15.48;;;;;;;;;;5030504;28;20017;-87
2021/12/13 00:21:13;;;;;;;121.72;19.75;;;;;;;;;;5012465;28;20144;-87
2021/12/13 00:23:43;;;;;;;76.00;17.67;;;;;;;;;;5012622;28;20021;-87
2021/12/13 00:26:09;;;;;;;85.75;18.20;;;;;;;;;;5030258;28;20033;-87
2021/12/13 00:28:37;;;;;;;103.78;18.45;;;;;;;;;;5032165;28;20662;-86
2021/12/13 00:31:20;;;;;;;52.22;15.02;;;;;;;;;;5030125;28;20105;-86
2021/12/13 00:33:57;;;;;;;161.80;22.48;;;;;;;;;;5030309;28;20025;-87
2021/12/13 00:36:44;;;;;;;88.82;19.00;;;;;;;;;;5030167;28;20091;-87
2021/12/13 00:39:16;;;;;;;91.07;18.95;;;;;;;;;;5029878;28;20021;-87
2021/12/13 00:41:42;;;;;;;201.10;23.88;;;;;;;;;;5029910;28;20038;-87
2021/12/13 00:44:11;;;;;;;154.50;20.15;;;;;;;;;;5011935;28;20021;-87
2021/12/13 00:46:38;;;;;;;266.33;27.17;;;;;;;;;;5012444;28;20133;-87
2021/12/13 00:49:07;;;;;;;282.00;29.55;;;;;;;;;;5031097;28;20359;-87
2021/12/13 00:51:34;;;;;;;229.27;25.70;;;;;;;;;;5030071;28;20443;-87
2021/12/13 00:54:02;;;;;;;146.25;19.92;;;;;;;;;;5032192;28;20021;-86
2021/12/13 00:56:46;;;;;;;119.28;18.25;;;;;;;;;;5012248;28;20981;-87
2021/12/13 00:59:30;;;;;;;122.38;17.52;;;;;;;;;;5011978;28;20025;-87
2021/12/13 01:01:58;;;;;;;100.70;15.45;;;;;;;;;;5033987;28;20077;-87
2021/12/13 01:04:43;;;;;;;127.38;18.25;;;;;;;;;;5033849;28;20040;-87
2021/12/13 01:07:35;;;;;;;127.60;16.10;;;;;;;;;;5033905;28;20087;-87
2021/12/13 01:10:00;;;;;;;;;;;;;;;;;;5016237;28;20029;-87
2021/12/13 01:12:26;;;;;;;158.43;17.23;;;;;;;;;;5036248;28;19912;-86
2021/12/13 01:14:59;;;;;;;180.85;18.77;;;;;;;;;;5034373;28;20391;-87
2021/12/13 01:17:41;;;;;;;125.50;17.30;;;;;;;;;;5033874;28;20021;-87
2021/12/13 01:20:32;;;;;;;136.73;16.85;;;;;;;;;;5017225;28;20560;-87
2021/12/13 01:23:03;;;;;;;90.60;15.50;;;;;;;;;;5015717;28;20033;-87
2021/12/13 01:25:41;;;;;;;133.13;17.95;;;;;;;;;;5033514;28;20431;-87
2021/12/13 01:28:09;;;;;;;89.95;15.05;;;;;;;;;;5015627;28;20053;-87
2021/12/13 01:30:37;;;;;;;70.53;15.25;;;;;;;;;;5015511;28;20501;-87
2021/12/13 01:33:05;;;;;;;103.95;17.02;;;;;;;;;;5033356;28;20033;-87
2021/12/13 01:35:34;;;;;;;87.43;18.40;;;;;;;;;;5017022;28;20025;-87
2021/12/13 01:38:05;;;;;;;123.22;18.02;;;;;;;;;;5033210;28;20103;-87
2021/12/13 01:40:32;;;;;;;99.10;17.25;;;;;;;;;;5035361;28;20028;-87
2021/12/13 01:43:00;;;;;;;135.82;18.88;;;;;;;;;;5033280;28;20473;-87
2021/12/13 01:45:25;;;;;;;106.28;17.35;;;;;;;;;;5033020;28;20033;-87
2021/12/13 01:47:51;;;;;;;126.07;19.00;;;;;;;;;;5015437;28;20021;-87
2021/12/13 01:50:18;;;;;;;86.68;16.75;;;;;;;;;;5015094;28;20125;-87
2021/12/13 01:52:45;;;;;;;151.18;19.83;;;;;;;;;;5033187;28;20067;-87
2021/12/13 01:55:21;;;;;;;145.82;18.23;;;;;;;;;;5035213;28;20087;-87
2021/12/13 01:58:19;;;;;;;140.65;20.23;;;;;;;;;;5014956;28;20132;-87
2021/12/13 02:03:21;;;;;;;177.18;21.17;;;;;;;;;;5033219;28;20572;-87
2021/12/13 02:05:47;;;;;;;265.08;23.38;;;;;;;;;;5033023;28;20029;-87
2021/12/13 02:08:14;;;;;;;228.57;23.25;;;;;;;;;;5014952;28;20382;-87
2021/12/13 02:10:52;;;;;;;256.02;22.95;;;;;;;;;;5014965;28;20119;-87
2021/12/13 02:13:22;;;;;;;188.80;21.02;;;;;;;;;;5014031;28;20029;-87
2021/12/13 02:18:35;;;;;;;165.98;22.60;;;;;;;;;;5035533;28;20110;-87
2021/12/13 02:21:07;;;;;;;148.75;22.70;;;;;;;;;;5014483;28;20509;-87
2021/12/13 02:23:34;;;;;;;180.18;22.90;;;;;;;;;;5034512;28;20029;-87
2021/12/13 02:25:59;;;;;;;108.07;19.25;;;;;;;;;;5032459;28;20014;-87
2021/12/13 02:28:26;;;;;;;156.27;20.55;;;;;;;;;;5032571;28;20022;-87
2021/12/13 02:30:54;;;;;;;146.57;22.00;;;;;;;;;;5014439;28;20025;-87
2021/12/13 02:33:24;;;;;;;95.20;19.83;;;;;;;;;;5014410;28;20037;-87
2021/12/13 02:35:52;;;;;;;130.00;22.48;;;;;;;;;;5032209;28;20033;-87
2021/12/13 02:38:18;;;;;;;109.25;20.52;;;;;;;;;;5032149;28;20032;-87
2021/12/13 02:40:44;;;;;;;133.27;21.30;;;;;;;;;;5034142;28;20028;-87
2021/12/13 02:43:11;;;;;;;125.97;21.05;;;;;;;;;;5014169;28;20397;-87
2021/12/13 02:45:43;;;;;;;89.70;17.98;;;;;;;;;;5014567;28;20424;-87
2021/12/13 02:48:11;;;;;;;105.03;20.33;;;;;;;;;;5032326;28;20037;-87
2021/12/13 02:50:45;;;;;;;85.63;19.30;;;;;;;;;;5032125;28;20026;-87
2021/12/13 02:53:12;;;;;;;99.28;19.75;;;;;;;;;;5013907;28;20029;-87
2021/12/13 02:55:38;;;;;;;83.45;19.13;;;;;;;;;;5013955;28;20374;-87
2021/12/13 02:58:05;;;;;;;71.20;17.35;;;;;;;;;;5031960;28;20023;-87
2021/12/13 03:00:33;;;;;;;53.92;16.65;;;;;;;;;;5032887;28;20100;-87
2021/12/13 03:03:02;;;;;;;55.45;15.98;;;;;;;;;;5013647;28;20022;-87
2021/12/13 03:05:35;;;;;;;60.50;16.92;;;;;;;;;;5032019;28;20018;-87
2021/12/13 03:08:05;;;;;;;61.00;15.88;;;;;;;;;;5031458;28;20018;-87
2021/12/13 03:10:32;;;;;;;50.20;14.68;;;;;;;;;;5031414;28;20018;-87
2021/12/13 03:12:58;;;;;;;43.33;14.15;;;;;;;;;;5013576;28;20111;-87
2021/12/13 03:15:29;;;;;;;51.10;14.63;;;;;;;;;;5013680;28;20116;-86
2021/12/13 03:18:15;;;;;;;41.63;13.60;;;;;;;;;;5013600;28;20025;-87
2021/12/13 03:20:50;;;;;;;48.58;14.10;;;;;;;;;;5015786;28;20111;-87
2021/12/13 03:23:34;;;;;;;43.28;14.25;;;;;;;;;;5030459;28;20075;-87
2021/12/13 03:26:18;;;;;;;35.33;13.10;;;;;;;;;;5013379;28;20052;-87
2021/12/13 03:28:43;;;;;;;38.65;13.60;;;;;;;;;;5031360;28;20044;-87
2021/12/13 03:31:11;;;;;;;47.22;14.85;;;;;;;;;;5013621;28;20017;-87
2021/12/13 03:33:48;;;;;;;49.03;13.70;;;;;;;;;;5013333;28;20484;-87
2021/12/13 03:36:14;;;;;;;52.45;15.95;;;;;;;;;;5031289;28;20516;-87
2021/12/13 03:38:43;;;;;;;45.40;14.50;;;;;;;;;;5032575;28;20025;-86
2021/12/13 03:41:10;;;;;;;59.65;17.08;;;;;;;;;;5030974;28;20034;-87
2021/12/13 03:43:37;;;;;;;49.92;15.70;;;;;;;;;;5013030;28;20082;-87
2021/12/13 03:46:06;;;;;;;96.10;17.42;;;;;;;;;;5031098;28;20025;-87
2021/12/13 03:48:32;;;;;;;88.97;17.27;;;;;;;;;;5012960;28;20032;-87
2021/12/13 03:51:00;;;;;;;104.40;18.98;;;;;;;;;;5030833;28;20037;-87
2021/12/13 03:53:26;;;;;;;106.20;18.50;;;;;;;;;;5030650;28;20025;-87
2021/12/13 03:55:54;;;;;;;122.53;19.67;;;;;;;;;;5030787;28;20029;-87
2021/12/13 03:58:20;;;;;;;124.63;19.50;;;;;;;;;;5030746;28;20488;-87
2021/12/13 04:00:51;;;;;;;145.38;21.42;;;;;;;;;;5030849;28;20057;-87
2021/12/13 04:03:17;;;;;;;124.15;18.35;;;;;;;;;;5018484;28;20830;-87
2021/12/13 04:05:43;;;;;;;196.48;22.05;;;;;;;;;;5012892;28;20057;-87
2021/12/13 04:08:11;;;;;;;170.82;19.65;;;;;;;;;;5012845;28;20072;-87
2021/12/13 04:10:38;;;;;;;173.40;19.35;;;;;;;;;;5030908;28;20021;-87
2021/12/13 04:13:12;;;;;;;155.05;19.27;;;;;;;;;;5012865;28;20075;-88
2021/12/13 04:16:00;;;;;;;238.85;22.20;;;;;;;;;;5012784;28;20057;-87
2021/12/13 04:21:18;;;;;;;198.52;19.95;;;;;;;;;;5030821;28;20064;-87
2021/12/13 04:23:52;;;;;;;144.75;18.55;;;;;;;;;;5030424;28;20025;-87
2021/12/13 04:26:17;;;;;;;279.05;21.33;;;;;;;;;;5033335;28;20033;-87
2021/12/13 04:28:45;;;;;;;211.82;22.17;;;;;;;;;;5012529;28;20087;-88
2021/12/13 04:31:11;;;;;;;167.57;19.15;;;;;;;;;;5030456;28;20079;-87
2021/12/13 04:33:37;;;;;;;174.43;19.95;;;;;;;;;;5030327;28;20502;-88
2021/12/13 04:36:13;;;;;;;200.83;20.37;;;;;;;;;;5012157;28;20038;-87
2021/12/13 04:38:53;;;;;;;119.47;18.10;;;;;;;;;;5030376;28;20253;-87
2021/12/13 04:41:21;;;;;;;206.38;20.65;;;;;;;;;;5030274;28;20037;-87
2021/12/13 04:43:46;;;;;;;189.77;20.77;;;;;;;;;;5029894;28;20026;-87
2021/12/13 04:46:12;;;;;;;134.43;19.23;;;;;;;;;;5030284;28;20107;-87
2021/12/13 04:48:38;;;;;;;112.30;17.75;;;;;;;;;;5031925;28;20033;-87
2021/12/13 04:51:06;;;;;;;78.20;16.60;;;;;;;;;;5012090;28;20033;-87
2021/12/13 04:53:33;;;;;;;111.55;19.40;;;;;;;;;;5012526;28;20024;-87
2021/12/13 04:56:01;;;;;;;71.15;16.48;;;;;;;;;;5030511;28;20450;-87
2021/12/13 04:58:27;;;;;;;67.43;16.75;;;;;;;;;;5030132;28;20424;-87
2021/12/13 05:00:55;;;;;;;88.93;18.05;;;;;;;;;;5030096;28;20397;-88
2021/12/13 05:03:22;;;;;;;82.40;17.55;;;;;;;;;;5030047;28;20078;-87
2021/12/13 05:05:48;;;;;;;39.83;13.60;;;;;;;;;;5011828;28;20032;-87
2021/12/13 05:08:14;;;;;;;75.47;17.42;;;;;;;;;;5012225;28;20017;-87
2021/12/13 05:10:42;;;;;;;64.97;16.75;;;;;;;;;;5012431;28;20519;-88
2021/12/13 05:13:13;;;;;;;82.53;17.83;;;;;;;;;;5013473;28;20021;-88
2021/12/13 05:15:41;;;;;;;106.85;19.55;;;;;;;;;;5029885;28;20032;-88
2021/12/13 05:18:09;;;;;;;145.30;20.23;;;;;;;;;;5029920;28;20366;-88
2021/12/13 05:20:37;;;;;;;126.70;20.33;;;;;;;;;;5031361;28;20053;-87
2021/12/13 05:23:07;;;;;;;117.95;19.25;;;;;;;;;;5029847;28;20032;-87
2021/12/13 05:25:33;;;;;;;196.20;22.40;;;;;;;;;;5012163;28;20841;-87
2021/12/13 05:28:00;;;;;;;179.20;21.00;;;;;;;;;;5029393;28;20025;-87
2021/12/13 05:30:26;;;;;;;149.43;20.23;;;;;;;;;;5029399;28;20485;-87
2021/12/13 05:32:54;;;;;;;146.20;19.85;;;;;;;;;;5029389;28;20028;-87
2021/12/13 05:35:26;;;;;;;156.93;19.60;;;;;;;;;;5029506;28;20044;-87
2021/12/13 05:37:56;;;;;;;170.93;22.67;;;;;;;;;;5031182;28;20022;-87
2021/12/13 05:40:33;;;;;;;158.98;21.10;;;;;;;;;;5029594;28;20021;-87
2021/12/13 05:43:00;;;;;;;212.30;25.88;;;;;;;;;;5011371;28;20040;-86
2021/12/13 05:45:31;;;;;;;168.35;23.58;;;;;;;;;;5029715;28;20100;-87
2021/12/13 05:47:59;;;;;;;103.05;19.48;;;;;;;;;;5013414;28;20048;-87
2021/12/13 05:50:29;;;;;;;165.80;25.40;;;;;;;;;;5032773;28;20021;-87
2021/12/13 05:53:00;;;;;;;96.03;21.95;;;;;;;;;;5032870;28;20021;-87
2021/12/13 05:55:26;;;;;;;96.13;21.48;;;;;;;;;;5014868;28;20473;-87
2021/12/13 05:57:52;;;;;;;71.03;19.38;;;;;;;;;;5033014;28;20136;-87
2021/12/13 06:00:31;;;;;;;54.67;16.97;;;;;;;;;;5033400;28;20017;-90
2021/12/13 06:03:06;;;;;;;66.93;17.98;;;;;;;;;;5015713;28;20409;-90
2021/12/13 06:05:31;;;;;;;80.13;20.00;;;;;;;;;;5015633;28;20018;-90
2021/12/13 06:13:08;;;;;;;95.40;21.77;;;;;;;;;;4470974;22;20539;-90
2021/12/13 06:15:38;;;;;;;69.43;19.08;;;;;;;;;;5014175;28;20031;-87
2021/12/13 06:18:04;;;;;;;72.20;19.52;;;;;;;;;;5030796;28;20414;-87
2021/12/13 06:20:34;;;;;;;74.33;19.67;;;;;;;;;;5030380;28;20033;-87
2021/12/13 06:23:17;;;;;;;78.20;21.38;;;;;;;;;;5030419;28;20080;-87
2021/12/13 06:25:44;;;;;;;60.50;17.80;;;;;;;;;;5039376;28;20033;-87
2021/12/13 06:28:36;;;;;;;77.47;21.38;;;;;;;;;;5013011;28;20083;-87
2021/12/13 06:31:05;;;;;;;80.40;21.35;;;;;;;;;;5008323;28;20128;-87
2021/12/13 06:33:43;;;;;;;79.15;22.48;;;;;;;;;;5012390;28;20025;-87
2021/12/13 06:36:09;;;;;;;65.55;20.30;;;;;;;;;;5030275;28;20835;-87
2021/12/13 06:38:36;;;;;;;79.57;22.33;;;;;;;;;;5030176;28;20064;-87
2021/12/13 06:41:01;;;;;;;101.22;25.23;;;;;;;;;;5012171;28;20292;-88
2021/12/13 06:43:45;;;;;;;98.05;23.48;;;;;;;;;;5029823;28;20389;-87
2021/12/13 06:46:10;;;;;;;90.57;25.00;;;;;;;;;;5012631;28;20029;-87
2021/12/13 06:48:38;;;;;;;77.20;23.00;;;;;;;;;;5011680;28;20029;-87
2021/12/13 06:51:04;;;;;;;78.43;23.95;;;;;;;;;;5012017;28;20075;-87
2021/12/13 06:53:29;;;;;;;109.95;26.08;;;;;;;;;;5030097;28;20385;-87
2021/12/13 06:55:54;;;;;;;109.43;25.33;;;;;;;;;;5029995;28;20036;-87
2021/12/13 06:58:23;;;;;;;95.10;25.98;;;;;;;;;;5029703;28;20508;-87
2021/12/13 07:00:50;;;;;;;81.03;24.13;;;;;;;;;;5011761;28;20026;-87
2021/12/13 07:03:17;;;;;;;122.22;27.90;;;;;;;;;;5030033;28;20151;-87
2021/12/13 07:05:42;;;;;;;112.88;27.48;;;;;;;;;;5030128;28;20033;-87
2021/12/13 07:08:09;;;;;;;105.45;27.73;;;;;;;;;;5029761;28;20026;-87
2021/12/13 07:10:37;;;;;;;111.75;27.70;;;;;;;;;;5011869;28;20024;-88
2021/12/13 07:13:20;;;;;;;139.02;31.70;;;;;;;;;;5029299;28;20060;-87
2021/12/13 07:15:48;;;;;;;170.55;32.88;;;;;;;;;;5030029;28;20025;-87
2021/12/13 07:18:15;;;;;;;106.20;29.85;;;;;;;;;;5029497;28;20022;-87
2021/12/13 07:21:01;;;;;;;132.15;31.55;;;;;;;;;;5011817;28;20397;-87
2021/12/13 07:23:26;;;;;;;142.68;31.90;;;;;;;;;;4997342;28;20056;-87
2021/12/13 07:25:53;;;;;;;118.18;28.73;;;;;;;;;;5029340;28;20485;-87
2021/12/13 07:28:33;;;;;;;157.90;34.45;;;;;;;;;;5029085;28;20017;-87
2021/12/13 07:30:59;;;;;;;136.98;31.33;;;;;;;;;;5011349;28;20637;-87
2021/12/13 07:33:37;;;;;;;100.78;28.83;;;;;;;;;;5011336;28;20032;-86
2021/12/13 07:36:14;;;;;;;154.40;34.15;;;;;;;;;;5029258;28;20083;-87
2021/12/13 07:38:46;;;;;;;107.93;27.73;;;;;;;;;;5029073;28;20029;-87
2021/12/13 07:41:12;;;;;;;145.98;30.17;;;;;;;;;;5029530;28;20029;-87
2021/12/13 07:43:39;;;;;;;138.65;29.92;;;;;;;;;;5011352;28;20028;-87
2021/12/13 07:46:21;;;;;;;121.72;28.67;;;;;;;;;;5028847;28;20104;-87
2021/12/13 07:48:46;;;;;;;137.55;30.88;;;;;;;;;;5028572;28;20528;-87
2021/12/13 07:51:31;;;;;;;116.30;29.87;;;;;;;;;;5028902;28;20025;-87
2021/12/13 07:53:56;;;;;;;115.05;28.98;;;;;;;;;;5010824;28;20264;-87
2021/12/13 07:56:39;;;;;;;101.68;29.65;;;;;;;;;;5011079;28;20146;-87
2021/12/13 07:59:20;;;;;;;111.32;29.80;;;;;;;;;;5028624;28;20033;-88
2021/12/13 08:02:17;;;;;;;94.80;29.38;;;;;;;;;;5011034;28;20040;-88
2021/12/13 08:04:48;;;;;;;92.60;28.98;;;;;;;;;;4984098;28;20124;-87
2021/12/13 08:07:13;;;;;;;123.10;31.58;;;;;;;;;;5028487;28;20123;-87
2021/12/13 08:09:47;;;;;;;140.20;33.93;;;;;;;;;;5027957;28;20112;-87
2021/12/13 08:12:21;;;;;;;123.25;33.30;;;;;;;;;;5009779;28;20087;-88
2021/12/13 08:14:48;;;;;;;140.98;32.88;;;;;;;;;;5010645;28;20084;-87
2021/12/13 08:17:15;;;;;;;122.15;33.05;;;;;;;;;;5028611;28;20025;-87
2021/12/13 08:19:41;;;;;;;129.77;33.42;;;;;;;;;;5010950;28;20374;-88
2021/12/13 08:22:10;;;;;;;126.50;32.47;;;;;;;;;;5028565;28;20033;-88
2021/12/13 08:24:40;;;;;;;119.78;33.20;;;;;;;;;;5011055;28;20121;-87
2021/12/13 08:27:12;;;;;;;130.07;32.92;;;;;;;;;;5028780;28;20079;-88
2021/12/13 08:29:38;;;;;;;113.82;32.13;;;;;;;;;;5029389;28;20028;-88
2021/12/13 08:32:06;;;;;;;111.57;33.30;;;;;;;;;;5011256;28;20036;-88
2021/12/13 08:34:33;;;;;;;138.57;36.15;;;;;;;;;;5028744;28;20083;-88
2021/12/13 08:36:59;;;;;;;102.03;30.02;;;;;;;;;;5028492;28;20068;-87
2021/12/13 08:39:34;;;;;;;108.78;31.30;;;;;;;;;;5010743;28;20795;-87
2021/12/13 08:42:09;;;;;;;114.90;34.08;;;;;;;;;;5028264;28;20042;-87
2021/12/13 08:44:36;;;;;;;99.30;30.55;;;;;;;;;;5010713;28;20487;-87
2021/12/13 08:47:10;;;;;;;125.93;32.85;;;;;;;;;;5010769;28;20029;-87
2021/12/13 08:49:37;;;;;;;95.18;31.08;;;;;;;;;;5028907;28;20104;-87
2021/12/13 08:52:16;;;;;;;91.07;29.40;;;;;;;;;;5011030;28;20029;-87
2021/12/13 08:54:51;;;;;;;113.05;32.58;;;;;;;;;;5033062;28;20030;-87
2021/12/13 08:57:28;;;;;;;93.82;29.60;;;;;;;;;;5008680;28;20540;-88
2021/12/13 08:59:54;;;;;;;76.50;27.40;;;;;;;;;;4990365;28;20033;-87
2021/12/13 09:02:20;;;;;;;87.65;28.35;;;;;;;;;;5020873;28;20034;-88
2021/12/13 09:05:07;;;;;;;92.95;28.60;;;;;;;;;;5010116;28;20404;-87
2021/12/13 09:07:32;;;;;;;94.57;28.40;;;;;;;;;;4990592;28;20065;-87
2021/12/13 09:09:58;;;;;;;80.68;25.73;;;;;;;;;;5017762;28;20069;-88
2021/12/13 09:12:30;;;;;;;78.95;24.48;;;;;;;;;;5010409;28;20057;-88
2021/12/13 09:14:57;;;;;;;69.53;23.75;;;;;;;;;;5028009;28;20083;-88
2021/12/13 09:17:32;;;;;;;60.15;22.08;;;;;;;;;;5028322;28;20024;-88
2021/12/13 09:20:15;;;;;;;79.72;23.02;;;;;;;;;;5010397;28;20108;-88
2021/12/13 09:22:42;;;;;;;80.30;20.88;;;;;;;;;;5031213;28;20386;-88
2021/12/13 09:25:11;;;;;;;68.90;21.45;;;;;;;;;;5032595;28;20022;-88
2021/12/13 09:27:56;;;;;;;62.80;19.92;;;;;;;;;;5032025;28;20021;-87
2021/12/13 09:30:29;;;;;;;74.13;19.75;;;;;;;;;;5031376;28;20112;-87
2021/12/13 09:32:59;;;;;;;51.72;18.88;;;;;;;;;;5032445;28;20025;-87
2021/12/13 09:35:44;;;;;;;61.33;19.35;;;;;;;;;;5032666;28;20028;-87
2021/12/13 09:38:15;;;;;;;46.30;17.20;;;;;;;;;;5032350;28;20025;-87
2021/12/13 09:40:41;;;;;;;50.63;16.48;;;;;;;;;;5031537;28;20552;-88
2021/12/13 09:43:06;;;;;;;52.20;15.77;;;;;;;;;;5031050;28;20048;-88
2021/12/13 09:45:52;;;;;;;47.00;14.93;;;;;;;;;;5013924;28;20018;-87
2021/12/13 09:48:17;;;;;;;45.58;15.07;;;;;;;;;;5031451;28;20112;-88
2021/12/13 09:50:46;;;;;;;51.90;14.67;;;;;;;;;;5032584;28;20128;-87
2021/12/13 09:53:11;;;;;;;47.45;14.05;;;;;;;;;;5017304;28;20276;-86
2021/12/13 09:55:41;;;;;;;39.03;12.70;;;;;;;;;;5022296;28;20029;-87
2021/12/13 09:58:12;;;;;;;35.60;12.60;;;;;;;;;;5019458;28;20105;-87
2021/12/13 10:00:49;;;;;;;32.45;13.10;;;;;;;;;;5020634;28;20394;-87
2021/12/13 10:03:20;;;;;;;29.05;12.40;;;;;;;;;;5010014;28;20026;-88
2021/12/13 10:05:48;;;;;;;37.30;11.43;;;;;;;;;;5004988;28;20054;-87
2021/12/13 10:08:15;;;;;;;37.33;11.88;;;;;;;;;;5011248;28;20086;-87
2021/12/13 10:10:46;;;;;;;28.35;10.18;;;;;;;;;;5031125;28;20029;-88
2021/12/13 10:13:14;;;;;;;32.83;10.23;;;;;;;;;;5013048;28;20053;-87
2021/12/13 10:15:46;;;;;;;39.97;12.27;;;;;;;;;;5030791;28;20252;-87
2021/12/13 10:18:11;;;;;;;;;;;;;;;;;;5013828;28;20021;-88
2021/12/13 10:20:39;;;;;;;31.88;11.00;;;;;;;;;;5030445;28;20051;-88
2021/12/13 10:23:09;;;;;;;38.28;10.50;;;;;;;;;;5011943;28;20555;-88
2021/12/13 10:25:37;;;;;;;36.50;10.85;;;;;;;;;;5030174;28;20021;-88
2021/12/13 10:28:04;;;;;;;38.70;11.02;;;;;;;;;;5029992;28;20044;-88
2021/12/13 10:30:32;;;;;;;28.40;11.23;;;;;;;;;;5012262;28;20074;-88
2021/12/13 10:32:58;;;;;;;34.65;9.95;;;;;;;;;;5011865;28;20024;-88
2021/12/13 10:35:28;;;;;;;30.40;10.10;;;;;;;;;;5030390;28;20723;-88
2021/12/13 10:37:55;;;;;;;32.83;10.75;;;;;;;;;;5030452;28;20030;-88
2021/12/13 10:40:26;;;;;;;29.30;10.35;;;;;;;;;;5030513;28;20028;-88
2021/12/13 10:42:57;;;;;;;33.83;9.48;;;;;;;;;;5011923;28;20034;-88
2021/12/13 10:45:24;;;;;;;26.63;8.23;;;;;;;;;;5030824;28;20861;-88
2021/12/13 10:47:51;;;;;;;27.75;8.32;;;;;;;;;;5029428;28;20039;-88
2021/12/13 10:50:24;;;;;;;20.73;8.63;;;;;;;;;;5029883;28;20510;-88
2021/12/13 10:52:51;;;;;;;27.65;9.32;;;;;;;;;;5031037;28;20028;-88
2021/12/13 10:55:30;;;;;;;25.48;8.77;;;;;;;;;;5014172;28;20013;-88
2021/12/13 10:57:56;;;;;;;16.73;7.82;;;;;;;;;;5029956;28;20053;-89
2021/12/13 11:00:24;;;;;;;27.33;9.00;;;;;;;;;;5012119;28;20126;-88
2021/12/13 11:02:51;;;;;;;27.23;9.45;;;;;;;;;;5012428;28;20038;-88
2021/12/13 11:05:18;;;;;;;25.73;8.95;;;;;;;;;;4992588;28;20018;-88
2021/12/13 11:07:44;;;;;;;26.42;9.50;;;;;;;;;;4992558;28;20100;-88
2021/12/13 11:10:11;;;;;;;25.88;8.45;;;;;;;;;;5021689;28;20056;-88
2021/12/13 11:12:44;;;;;;;30.60;9.75;;;;;;;;;;5030153;28;20126;-89
2021/12/13 11:15:21;;;;;;;26.23;8.50;;;;;;;;;;5030242;28;20026;-88
2021/12/13 11:17:46;;;;;;;25.65;8.35;;;;;;;;;;5012090;28;20029;-88
2021/12/13 11:20:17;;;;;;;28.02;8.88;;;;;;;;;;5029873;28;20063;-88
2021/12/13 11:22:43;;;;;;;24.13;10.45;;;;;;;;;;5030358;28;20516;-88
2021/12/13 11:25:14;;;;;;;19.85;8.40;;;;;;;;;;5029440;28;20028;-88
2021/12/13 11:27:39;;;;;;;20.80;9.20;;;;;;;;;;5029894;28;20021;-88
2021/12/13 11:30:18;;;;;;;25.98;9.20;;;;;;;;;;5012346;28;20374;-90
2021/12/13 11:32:59;;;;;;;27.20;9.57;;;;;;;;;;5013607;28;20074;-90
2021/12/13 11:35:43;;;;;;;25.85;9.38;;;;;;;;;;5013014;28;20029;-91
2021/12/13 11:38:28;;;;;;;19.67;9.50;;;;;;;;;;5014294;28;20428;-92
2021/12/13 11:41:09;;;;;;;27.15;10.15;;;;;;;;;;5013995;28;20017;-92
2021/12/13 11:43:55;;;;;;;22.65;9.18;;;;;;;;;;5013489;28;20025;-91
2021/12/13 11:46:34;;;;;;;25.58;10.88;;;;;;;;;;5013956;28;20021;-91
2021/12/13 11:49:11;;;;;;;29.15;9.73;;;;;;;;;;5013561;28;20033;-92
2021/12/13 11:51:57;;;;;;;23.38;9.50;;;;;;;;;;5013195;28;20040;-88
2021/12/13 11:54:25;;;;;;;21.25;9.02;;;;;;;;;;5029548;28;20029;-88
2021/12/13 11:57:09;;;;;;;18.42;8.35;;;;;;;;;;5010494;28;20083;-88
2021/12/13 11:59:49;;;;;;;24.48;9.18;;;;;;;;;;5028766;28;20091;-88
2021/12/13 12:02:41;;;;;;;24.92;9.50;;;;;;;;;;5028392;28;20152;-87
2021/12/13 12:05:06;;;;;;;;;;;;;;;;;;5029679;28;20026;-87
2021/12/13 12:07:39;;;;;;;21.15;10.23;;;;;;;;;;5029210;28;19929;-87
2021/12/13 12:10:24;;;;;;;27.33;10.75;;;;;;;;;;5010721;28;20026;-86
2021/12/13 12:12:57;;;;;;;28.33;10.32;;;;;;;;;;5010462;28;20076;-86
2021/12/13 12:15:24;;;;;;;23.65;9.93;;;;;;;;;;5028653;28;20385;-87
2021/12/13 12:17:50;;;;;;;26.52;11.80;;;;;;;;;;5028723;28;20022;-87
2021/12/13 12:20:17;;;;;;;24.30;10.55;;;;;;;;;;5029633;28;20068;-87
2021/12/13 12:22:49;;;;;;;26.52;10.70;;;;;;;;;;5013590;28;20047;-87
2021/12/13 12:25:15;;;;;;;26.58;10.10;;;;;;;;;;5010921;28;20021;-87
2021/12/13 12:27:41;;;;;;;23.48;10.65;;;;;;;;;;5011182;28;20035;-87
2021/12/13 12:30:19;;;;;;;26.08;11.07;;;;;;;;;;5028705;28;20104;-87
2021/12/13 12:32:47;;;;;;;26.23;11.10;;;;;;;;;;5010425;28;20562;-87
2021/12/13 12:35:14;;;;;;;29.25;10.30;;;;;;;;;;5028086;28;20056;-87
2021/12/13 12:37:59;;;;;;;24.27;10.18;;;;;;;;;;5027998;28;20481;-87
2021/12/13 12:40:45;;;;;;;23.00;9.70;;;;;;;;;;5009762;28;20025;-87
2021/12/13 12:43:16;;;;;;;24.08;9.82;;;;;;;;;;5028566;28;20034;-87
2021/12/13 12:45:49;;;;;;;23.08;11.02;;;;;;;;;;5028271;28;20056;-87
2021/12/13 12:48:17;;;;;;;34.13;11.35;;;;;;;;;;5028011;28;20033;-87
2021/12/13 12:50:53;;;;;;;23.67;10.15;;;;;;;;;;5010621;28;20037;-87
2021/12/13 12:53:31;;;;;;;27.15;11.60;;;;;;;;;;5013554;28;20018;-88
2021/12/13 12:55:58;;;;;;;31.52;11.65;;;;;;;;;;5010478;28;20033;-88
2021/12/13 12:58:34;;;;;;;26.20;12.27;;;;;;;;;;5013317;28;20017;-88
2021/12/13 13:01:01;;;;;;;33.53;13.27;;;;;;;;;;5031627;28;20029;-88
2021/12/13 13:03:34;;;;;;;29.98;10.95;;;;;;;;;;5033840;28;20021;-91
2021/12/13 13:06:06;;;;;;;27.85;11.38;;;;;;;;;;5016202;28;20029;-91
2021/12/13 13:08:33;;;;;;;27.48;12.35;;;;;;;;;;5016847;28;20453;-90
2021/12/13 13:11:27;;;;;;;29.08;11.55;;;;;;;;;;5016926;28;20696;-90
2021/12/13 13:13:45;;;;;;;24.85;11.23;;;;;;;;;;5034745;28;20155;-90
2021/12/13 13:16:11;;;;;;;22.98;11.63;;;;;;;;;;5016826;28;20103;-90
2021/12/13 13:18:38;;;;;;;29.92;12.38;;;;;;;;;;5016694;28;20500;-90
2021/12/13 13:21:07;;;;;;;28.25;12.00;;;;;;;;;;5016114;28;20018;-91
2021/12/13 13:23:41;;;;;;;25.27;11.88;;;;;;;;;;5016706;28;20083;-90
2021/12/13 13:26:06;;;;;;;20.92;11.38;;;;;;;;;;5016679;28;20014;-90
2021/12/13 13:28:34;;;;;;;37.90;14.75;;;;;;;;;;5015389;28;20033;-90
2021/12/13 13:31:18;;;;;;;27.95;13.10;;;;;;;;;;5034113;28;20032;-90
2021/12/13 13:33:47;;;;;;;29.90;11.90;;;;;;;;;;5016225;28;20036;-90
2021/12/13 13:36:15;;;;;;;31.10;14.02;;;;;;;;;;5015943;28;20720;-89
2021/12/13 13:38:42;;;;;;;25.17;11.82;;;;;;;;;;5016712;28;20025;-90
2021/12/13 13:41:09;;;;;;;27.92;13.77;;;;;;;;;;5015970;28;20107;-90
2021/12/13 13:43:37;;;;;;;32.03;13.93;;;;;;;;;;5014459;28;20048;-90
2021/12/13 13:46:03;;;;;;;34.63;15.30;;;;;;;;;;5015173;28;20036;-89
2021/12/13 13:48:30;;;;;;;37.20;14.60;;;;;;;;;;5015534;28;20452;-89
2021/12/13 13:50:57;;;;;;;27.75;14.80;;;;;;;;;;5016666;28;20031;-89
2021/12/13 13:53:22;;;;;;;32.28;13.80;;;;;;;;;;5033950;28;20024;-89
2021/12/13 13:55:56;;;;;;;28.70;14.80;;;;;;;;;;5015962;28;20017;-89
2021/12/13 13:58:23;;;;;;;28.33;14.27;;;;;;;;;;5015386;28;20040;-89
2021/12/13 14:00:59;;;;;;;33.10;14.60;;;;;;;;;;5033819;28;20068;-89
2021/12/13 14:03:44;;;;;;;28.75;15.27;;;;;;;;;;5015284;28;20029;-89
2021/12/13 14:06:11;;;;;;;39.35;15.68;;;;;;;;;;5033438;28;20087;-89
2021/12/13 14:08:38;;;;;;;31.55;15.65;;;;;;;;;;5014223;28;20062;-89
2021/12/13 14:11:04;;;;;;;33.05;17.02;;;;;;;;;;5015146;28;20478;-89
2021/12/13 14:13:34;;;;;;;43.28;15.98;;;;;;;;;;5015187;28;20104;-89
2021/12/13 14:16:08;;;;;;;32.38;16.30;;;;;;;;;;5015354;28;20021;-90
2021/12/13 14:18:34;;;;;;;38.38;16.52;;;;;;;;;;5012406;28;20021;-86
2021/12/13 14:21:00;;;;;;;36.65;16.75;;;;;;;;;;5030618;28;20779;-86
2021/12/13 14:23:26;;;;;;;35.85;17.40;;;;;;;;;;5013061;28;20016;-86
2021/12/13 14:25:53;;;;;;;35.42;17.15;;;;;;;;;;5030711;28;20449;-86
2021/12/13 14:28:28;;;;;;;38.05;18.70;;;;;;;;;;5031320;28;20813;-86
2021/12/13 14:30:53;;;;;;;43.80;19.50;;;;;;;;;;5030452;28;20788;-86
2021/12/13 14:33:28;;;;;;;53.33;23.02;;;;;;;;;;5011870;28;20108;-86
2021/12/13 14:36:06;;;;;;;51.63;23.92;;;;;;;;;;5030360;28;20034;-86
2021/12/13 14:38:31;;;;;;;53.60;24.88;;;;;;;;;;5012778;28;20025;-86
2021/12/13 14:40:59;;;;;;;51.25;24.40;;;;;;;;;;5029863;28;20075;-85
2021/12/13 14:43:26;;;;;;;45.33;23.35;;;;;;;;;;5011806;28;20104;-86
2021/12/13 14:45:53;;;;;;;51.25;24.40;;;;;;;;;;5012505;28;20021;-86
2021/12/13 14:48:19;;;;;;;54.70;26.27;;;;;;;;;;5012050;28;20437;-86